Billy Bishop Toronto City Centre Airport
CYTZ : now visible

Airfield :











YOU CAN JOIN US ON...

 
LOGIN :

Register | Disclaimer

   EN    FR    IT 

 









Legend :    VFR   Marginal VFR   IFR   Intensive IFR   Very Intensive IFR
Visi :
Ceiling :
>= 8 km
>= 3000ft
5 to 8 km
1000 to 3000 ft
1500m to 5 km
500 to 1000 ft
800 to 1500m
200 to 500 ft
< 800m
< 200 ft
Symbols :   Thunderstorms  Fog  Heavy snow  Heavy precipitations  Wind > 20 kt






- Airport Elevation : 251 ft
- IATA code : YTZ


CYTZ - Billy Bishop Toronto City Centre

CURRENT METAR :
  • 142113Z AUTO 30013G20KT 5SM -SN -UP SCT011 OVC024 02/01 A2937 RMK SLP950

EXPIRED METARs :
  • 142105Z AUTO 30014G19KT 5SM -SN -UP SCT008 OVC024 02/01 A2937 RMK SLP949
  • 142038Z AUTO 31011G19KT 5SM -SN SCT008 OVC022 01/01 A2936 RMK SLP947
  • 142020Z AUTO 31009G19KT 5SM -SN SCT008 OVC024 01/00 A2936 RMK SLP947
  • 142016Z AUTO 30012G17KT 5SM -SN -UP SCT008 OVC024 01/00 A2936 RMK SLP946
  • 142004Z AUTO 30010G19KT 7SM -RA FEW010 OVC026 02/00 A2936 RMK SLP946
  • 141958Z AUTO 30011G16KT 7SM -RA -UP FEW008 OVC028 02/00 A2936 RMK SLP945
  • 141944Z AUTO 31010G17KT 5SM -UP BR SCT008 OVC026 01/01 A2935 RMK SLP944
  • 141900Z AUTO 30011G18KT 5SM -SN BKN008 OVC020 01/00 A2937 RMK SLP950
  • 141852Z AUTO 32008KT 6SM -SN SCT008 OVC020 01/00 A2937 RMK SLP950
  • 141845Z AUTO 31007KT 4SM -SN BKN008 OVC024 01/00 A2937 RMK SLP950
  • 141830Z AUTO 31007KT 5SM -SN SCT010 OVC028 01/00 A2937 RMK SLP951
  • 141822Z AUTO 31007KT 8SM -SN SCT010 OVC028 02/00 A2937 RMK SLP951

TAF TAF CYTZ
Valid from the 14 at 20:00 until the 15 at 20:00 UTC


141938Z 1420/1520 31012G22KT 11/2SM -SN VV008
TEMPO 1420/1423 6SM -SNRA SCT008 OVC020
FM142300 29012G22KT 3SM -SN BKN015 OVC025
TEMPO 1423/1502 P6SM -SN SCT015 BKN025 OVC080
FM150200 28015G25KT P6SM SCT015 BKN025
FM150800 28015G25KT P6SM -SHSN OVC025
FM151400 28015G25KT P6SM SCT030
FM151900 28012G22KT P6SM BKN030 RMK FCST BASED ON AUTO OBS. NXT FCST BY 150200Z



MET'MAP, your aeronautical weather chart ! - Copyright ORBIFLY December 2007 - Disclaimer

ORBIFLY MET'MAP TEAM :

Programming & Development : Alexandra Zaïnal
Concept & original design : Baudouin d'Aumeries
Assistance for programming : Marc-Olivier Méhu
Technical & hardware support : Manuel Goepfert

Contact : metmap@orbifly.com




SOURCES & CREDITS :

   NOAA       Earth
Advisory